Tropical Cyclones
[Index]
Main Index Home Page Stock Weather Photos Extreme Storms Discussion Storm News and Storm Chasing Reports Tropical Cyclones / Hurricanes / Typhoons Weather Data and Links Wild Fires / Bushfires Weather Observation Techniques Weather Picture Catalogue Tornado Pictures and Reports Stock Video Footage and DVDs for sale
Season 2011-2012 Tropical Cyclone 201221 Track Map
Season 2011-2012 Summaries (Operational Data): [AU] [SIO] [SPAC] [SH]
<<- Previous TC | 2011-2012 Season | Next TC ->>

click for intensity scale information  Lat/long Grid: Show Hide

 Date Labels: Show Hide

Operational Tropical Cyclone Data : JTWC Advisories

Name: 201221
Number: 1221

27 Jun 2012 00:00 UTC to 01 Jul 2012 05:00 UTC

    date/time    lat    long     hPa   cat  kts
2012-06-27 00    8.4   151.4    1010         15          
2012-06-27 06    8.9   151.5    1010         15          
2012-06-27 12    9.4   151.6    1010         15          
2012-06-27 18   10.5   152.7    1010         15          
2012-06-28 00   10.6   153.0    1010         15          
2012-06-28 06   10.6   153.3    1010         15          
2012-06-28 12   10.7   153.5    1006         20          
2012-06-28 18   10.9   153.7    1004         25          
2012-06-29 00   11.2   154.2    1004         25          
2012-06-29 06   11.5   154.6    1000         30          
2012-06-29 12   11.7   154.9     996    1    35          
2012-06-29 18   11.4   155.0     996    1    35          
2012-06-30 00   11.0   154.8    1000         30          
2012-06-30 06   10.6   154.5    1004         25          
2012-06-30 08   10.5   154.5                             
2012-06-30 11   10.7   154.2                             
2012-06-30 12   10.4   154.1                 25          
2012-06-30 14   10.4   153.9                             
2012-06-30 17   10.6   154.2                             
2012-06-30 18   10.8   153.3                             
2012-06-30 18   10.3   153.6                             
2012-06-30 20   11.2   153.2                             
2012-06-30 23   11.3   152.2                             
2012-07-01 02   11.2   152.5                             
2012-07-01 05   11.7   151.7                             
Winds are 10-min average.

Tropical cyclone tracks developed by Michael Bath using operational warnings and advisories and Google Maps.


[Australian Severe Weather index] [Copyright Notice] [Email Contacts] [Search This Site] [Privacy Policy]
Document: tropical_cyclone_201221.htm Updated: 2 May 2017